createdAt,value
2023-02-08T00:01:16.625Z,1.19
2023-02-08T00:03:43.223Z,1.05
2023-02-08T00:06:10.685Z,0.81
2023-02-08T00:08:37.732Z,0.70
2023-02-08T00:11:05.715Z,0.63
2023-02-08T00:13:33.015Z,0.77
2023-02-08T00:16:18.851Z,0.89
2023-02-08T00:18:45.517Z,0.86
2023-02-08T00:21:15.660Z,0.75
2023-02-08T00:23:42.416Z,0.67
2023-02-08T00:26:09.521Z,0.67
2023-02-08T00:28:37.798Z,0.83
2023-02-08T00:31:05.414Z,0.82
2023-02-08T00:33:32.091Z,0.85
2023-02-08T00:36:04.610Z,0.88
2023-02-08T00:38:31.213Z,0.97
2023-02-08T00:40:57.742Z,0.97
2023-02-08T00:43:24.270Z,1.02
2023-02-08T00:45:55.511Z,0.95
2023-02-08T00:48:22.233Z,0.90
2023-02-08T00:51:07.513Z,0.92
2023-02-08T00:53:38.940Z,1.00
2023-02-08T00:56:07.262Z,0.94
2023-02-08T00:58:34.887Z,1.05
2023-02-08T01:01:03.527Z,1.07
2023-02-08T01:03:30.024Z,1.11
2023-02-08T01:06:01.703Z,1.13
2023-02-08T01:08:28.219Z,1.08
2023-02-08T01:11:10.135Z,1.09
2023-02-08T01:13:38.139Z,1.10
2023-02-08T01:16:15.134Z,1.07
2023-02-08T01:19:01.830Z,1.00
2023-02-08T01:21:49.150Z,0.92
2023-02-08T01:24:15.754Z,0.97
2023-02-08T01:27:00.879Z,1.00
2023-02-08T01:29:47.636Z,0.79
2023-02-08T01:32:34.446Z,0.77
2023-02-08T01:35:21.176Z,0.79
2023-02-08T01:38:08.002Z,0.92
2023-02-08T01:40:55.018Z,0.94
2023-02-08T01:44:02.125Z,0.76
2023-02-08T01:46:51.119Z,0.86
2023-02-08T01:49:37.996Z,0.88
2023-02-08T01:52:21.990Z,0.85
2023-02-08T01:54:56.206Z,0.79
2023-02-08T01:57:42.898Z,0.74
2023-02-08T02:00:28.383Z,0.66
2023-02-08T02:03:14.388Z,0.64
2023-02-08T02:06:14.088Z,0.74
2023-02-08T02:09:17.626Z,0.70
2023-02-08T02:12:07.753Z,0.76
2023-02-08T02:14:55.267Z,0.79
2023-02-08T02:17:42.260Z,0.76
2023-02-08T02:20:29.240Z,0.64
2023-02-08T02:23:16.883Z,0.66
2023-02-08T02:25:58.380Z,0.60
2023-02-08T02:28:36.433Z,0.63
2023-02-08T02:31:23.477Z,0.60
2023-02-08T02:34:23.200Z,0.59
2023-02-08T02:37:15.891Z,0.63
2023-02-08T02:40:08.493Z,0.66
2023-02-08T02:43:07.270Z,0.66
2023-02-08T02:45:39.870Z,0.67
2023-02-08T02:48:17.180Z,0.68
2023-02-08T02:51:31.759Z,0.55
2023-02-08T02:54:25.649Z,0.55
2023-02-08T02:57:16.085Z,0.42
2023-02-08T03:00:08.729Z,0.33
2023-02-08T03:02:56.094Z,0.14
2023-02-08T03:05:42.928Z,0.38
2023-02-08T03:09:09.879Z,0.39
2023-02-08T03:12:34.412Z,0.29
2023-02-08T03:15:51.811Z,0.28
2023-02-08T03:18:33.592Z,0.21
2023-02-08T03:21:19.296Z,0.19
2023-02-08T03:24:01.611Z,0.30
2023-02-08T03:27:12.276Z,0.28
2023-02-08T03:30:10.901Z,0.29
2023-02-08T03:32:40.334Z,0.27
2023-02-08T03:35:15.334Z,0.28
2023-02-08T03:37:58.253Z,0.25
2023-02-08T03:40:31.072Z,0.25
2023-02-08T03:43:03.474Z,0.19
2023-02-08T03:46:03.123Z,0.26
2023-02-08T03:48:31.800Z,0.21
2023-02-08T03:51:01.895Z,0.28
2023-02-08T03:53:32.477Z,0.34
2023-02-08T03:56:04.988Z,0.25
2023-02-08T03:58:38.600Z,0.20
2023-02-08T04:01:31.967Z,0.11
2023-02-08T04:03:59.837Z,0.27
2023-02-08T04:06:26.692Z,0.30
2023-02-08T04:08:56.418Z,0.34
2023-02-08T04:11:53.098Z,0.29
2023-02-08T04:14:38.158Z,0.26
2023-02-08T04:17:06.026Z,0.29
2023-02-08T04:19:51.278Z,0.33
2023-02-08T04:22:18.671Z,0.31
2023-02-08T04:25:04.394Z,0.41
2023-02-08T04:27:56.736Z,0.40
2023-02-08T04:30:42.004Z,0.33
2023-02-08T04:33:27.333Z,0.28
2023-02-08T04:36:12.737Z,0.34
2023-02-08T04:38:57.600Z,0.30
2023-02-08T04:41:24.089Z,0.31
2023-02-08T04:43:50.541Z,0.34
2023-02-08T04:46:35.499Z,0.29
2023-02-08T04:49:21.022Z,0.23
2023-02-08T04:52:06.706Z,0.23
2023-02-08T04:54:53.481Z,0.31
2023-02-08T04:57:20.096Z,0.25
2023-02-08T04:59:46.527Z,0.23
2023-02-08T05:02:12.991Z,0.21
2023-02-08T05:04:39.469Z,0.15
2023-02-08T05:07:05.937Z,0.20
2023-02-08T05:09:33.071Z,0.25
2023-02-08T05:11:59.587Z,0.21
2023-02-08T05:14:44.954Z,0.22
2023-02-08T05:17:19.038Z,0.18
2023-02-08T05:20:04.913Z,0.11
2023-02-08T05:22:50.005Z,0.11
2023-02-08T05:25:35.027Z,0.12
2023-02-08T05:28:17.204Z,0.11
2023-02-08T05:31:18.544Z,0.13
2023-02-08T05:34:03.897Z,0.16
2023-02-08T05:36:50.734Z,0.10
2023-02-08T05:39:37.499Z,0.13
2023-02-08T05:42:24.263Z,0.18
2023-02-08T05:45:11.068Z,0.15
2023-02-08T05:47:57.956Z,0.14
2023-02-08T05:50:44.746Z,0.08
2023-02-08T05:53:31.765Z,0.15
2023-02-08T05:56:18.613Z,0.13
2023-02-08T05:59:05.401Z,0.12
2023-02-08T06:01:52.165Z,-0.02
2023-02-08T06:04:39.242Z,0.01
2023-02-08T06:07:26.130Z,0.05
2023-02-08T06:10:12.902Z,0.00
2023-02-08T06:12:59.712Z,0.02
2023-02-08T06:15:46.565Z,0.08
2023-02-08T06:18:33.358Z,0.06
2023-02-08T06:21:20.120Z,-0.01
2023-02-08T06:23:46.700Z,0.03
2023-02-08T06:26:13.291Z,0.03
2023-02-08T06:29:00.432Z,0.05
2023-02-08T06:31:45.295Z,0.08
2023-02-08T06:34:32.099Z,0.04
2023-02-08T06:37:02.160Z,-0.03
2023-02-08T06:39:29.660Z,-0.01
2023-02-08T06:41:56.132Z,0.00
2023-02-08T06:44:22.661Z,0.04
2023-02-08T06:46:49.442Z,0.12
2023-02-08T06:49:16.187Z,0.08
2023-02-08T06:51:42.816Z,0.09
2023-02-08T06:54:10.035Z,0.10
2023-02-08T06:56:36.719Z,0.10
2023-02-08T06:59:21.983Z,0.10
2023-02-08T07:01:48.451Z,0.12
2023-02-08T07:04:14.945Z,0.21
2023-02-08T07:06:41.437Z,0.12
2023-02-08T07:09:26.580Z,0.18
2023-02-08T07:12:12.121Z,0.15
2023-02-08T07:14:41.371Z,0.23
2023-02-08T07:17:07.956Z,0.22
2023-02-08T07:19:34.526Z,0.23
2023-02-08T07:22:07.941Z,0.15
2023-02-08T07:24:52.833Z,0.15
2023-02-08T07:27:38.119Z,0.15
2023-02-08T07:30:05.858Z,0.11
2023-02-08T07:32:34.758Z,0.23
2023-02-08T07:35:19.820Z,0.23
2023-02-08T07:38:04.802Z,0.28
2023-02-08T07:40:32.125Z,0.28
2023-02-08T07:42:58.635Z,0.23
2023-02-08T07:45:25.741Z,0.32
2023-02-08T07:47:52.252Z,0.38
2023-02-08T07:50:37.225Z,0.14
2023-02-08T07:53:03.761Z,0.37
2023-02-08T07:55:32.213Z,0.45
2023-02-08T07:58:17.541Z,0.47
2023-02-08T08:00:44.376Z,0.41
2023-02-08T08:03:10.891Z,0.51
2023-02-08T08:05:41.077Z,0.63
2023-02-08T08:08:26.283Z,0.67
2023-02-08T08:10:52.935Z,0.65
2023-02-08T08:13:19.391Z,0.74
2023-02-08T08:15:47.345Z,0.81
2023-02-08T08:18:14.163Z,0.84
2023-02-08T08:20:40.961Z,0.85
2023-02-08T08:23:07.915Z,0.86
2023-02-08T08:25:34.522Z,0.92
2023-02-08T08:28:02.059Z,0.96
2023-02-08T08:30:28.602Z,0.98
2023-02-08T08:32:55.046Z,1.03
2023-02-08T08:35:35.327Z,1.15
2023-02-08T08:38:01.816Z,1.03
2023-02-08T08:40:29.793Z,1.15
2023-02-08T08:43:15.942Z,1.19
2023-02-08T08:45:42.526Z,1.27
2023-02-08T08:48:09.546Z,1.31
2023-02-08T08:50:36.064Z,1.41
2023-02-08T08:53:22.094Z,1.49
2023-02-08T08:56:07.319Z,1.50
2023-02-08T08:58:52.446Z,1.56
2023-02-08T09:01:38.862Z,1.59
2023-02-08T09:04:05.509Z,1.67
2023-02-08T09:06:32.165Z,1.60
2023-02-08T09:08:58.654Z,1.65
2023-02-08T09:11:25.826Z,1.71
2023-02-08T09:13:55.388Z,1.76
2023-02-08T09:16:23.989Z,1.81
2023-02-08T09:18:50.852Z,1.80
2023-02-08T09:21:21.033Z,1.89
2023-02-08T09:23:48.118Z,1.94
2023-02-08T09:26:18.063Z,1.96
2023-02-08T09:28:44.827Z,1.97
2023-02-08T09:31:18.652Z,1.95
2023-02-08T09:33:45.220Z,1.97
2023-02-08T09:36:11.723Z,1.99
2023-02-08T09:38:42.047Z,1.99
2023-02-08T09:41:42.646Z,2.05
2023-02-08T09:44:20.347Z,2.11
2023-02-08T09:47:18.469Z,2.14
2023-02-08T09:50:14.095Z,2.23
2023-02-08T09:52:45.540Z,2.29
2023-02-08T09:55:36.897Z,2.37
2023-02-08T09:58:15.678Z,2.39
2023-02-08T10:00:45.667Z,2.42
2023-02-08T10:03:27.946Z,2.45
2023-02-08T10:05:54.921Z,2.49
2023-02-08T10:08:22.914Z,2.53
2023-02-08T10:10:58.992Z,2.61
2023-02-08T10:13:56.764Z,2.67
2023-02-08T10:16:35.862Z,2.71
2023-02-08T10:19:16.972Z,2.77
2023-02-08T10:22:00.323Z,2.82
2023-02-08T10:24:45.327Z,2.88
2023-02-08T10:27:17.806Z,2.93
2023-02-08T10:30:15.310Z,2.97
2023-02-08T10:33:02.609Z,3.02
2023-02-08T10:35:39.976Z,2.99
2023-02-08T10:38:45.350Z,3.07
2023-02-08T10:44:36.212Z,3.18
2023-02-08T10:47:42.900Z,3.23
2023-02-08T10:50:46.447Z,3.30
2023-02-08T10:53:18.469Z,3.31
2023-02-08T10:55:51.848Z,3.32
2023-02-08T10:58:28.053Z,3.39
2023-02-08T11:00:55.483Z,3.41
2023-02-08T11:04:04.103Z,3.39
2023-02-08T11:06:34.941Z,3.51
2023-02-08T11:09:01.774Z,3.58
2023-02-08T11:11:38.565Z,3.62
2023-02-08T11:14:22.272Z,3.67
2023-02-08T11:17:03.072Z,3.69
2023-02-08T11:19:49.246Z,3.75
2023-02-08T11:22:22.221Z,3.78
2023-02-08T11:25:04.443Z,3.86
2023-02-08T11:28:02.377Z,3.85
2023-02-08T11:30:29.326Z,4.04
2023-02-08T11:33:21.892Z,4.10
2023-02-08T11:35:57.694Z,4.07
2023-02-08T11:38:29.407Z,4.16
2023-02-08T11:41:00.891Z,4.19
2023-02-08T11:43:36.897Z,4.19
2023-02-08T11:46:06.607Z,4.30
2023-02-08T11:48:42.806Z,4.42
2023-02-08T11:51:13.237Z,4.44
2023-02-08T11:53:45.958Z,4.36
2023-02-08T11:56:27.728Z,4.56
2023-02-08T11:58:57.160Z,4.55
2023-02-08T12:01:29.381Z,4.53
2023-02-08T12:03:59.441Z,4.56
2023-02-08T12:06:37.784Z,4.66
2023-02-08T12:09:18.518Z,4.68
2023-02-08T12:11:48.161Z,4.72
2023-02-08T12:14:18.499Z,4.77
2023-02-08T12:17:00.110Z,4.78
2023-02-08T12:19:53.336Z,4.81
2023-02-08T12:22:27.755Z,4.88
2023-02-08T12:25:20.348Z,4.89
2023-02-08T12:28:25.230Z,4.71
2023-02-08T12:31:01.840Z,5.01
2023-02-08T12:33:35.944Z,5.01
2023-02-08T12:36:26.986Z,5.07
2023-02-08T12:39:26.024Z,5.13
2023-02-08T12:42:11.234Z,5.18
2023-02-08T12:45:05.322Z,5.19
2023-02-08T12:48:04.005Z,5.26
2023-02-08T12:50:51.151Z,5.28
2023-02-08T12:53:31.624Z,5.35
2023-02-08T12:56:02.135Z,5.40
2023-02-08T12:58:45.595Z,5.50
2023-02-08T13:01:23.072Z,5.59
2023-02-08T13:04:16.420Z,5.65
2023-02-08T13:07:14.811Z,5.63
2023-02-08T13:10:06.429Z,5.66
2023-02-08T13:12:56.793Z,5.73
2023-02-08T13:15:36.265Z,5.75
2023-02-08T13:18:12.639Z,5.76
2023-02-08T13:20:51.296Z,5.79
2023-02-08T13:23:29.743Z,5.79
2023-02-08T13:26:01.845Z,5.73
2023-02-08T13:28:29.000Z,5.81
2023-02-08T13:31:11.444Z,5.81
2023-02-08T13:33:55.619Z,5.75
2023-02-08T13:37:01.912Z,5.94
2023-02-08T13:39:48.952Z,6.03
2023-02-08T13:42:30.458Z,5.95
2023-02-08T13:45:26.930Z,6.02
2023-02-08T13:48:00.824Z,6.12
2023-02-08T13:50:50.864Z,6.06
2023-02-08T13:53:37.826Z,6.10
2023-02-08T13:56:09.554Z,6.07
2023-02-08T13:58:48.801Z,6.07
2023-02-08T14:01:22.729Z,6.04
2023-02-08T14:04:07.589Z,6.00
2023-02-08T14:07:11.122Z,6.00
2023-02-08T14:10:01.862Z,5.99
2023-02-08T14:13:06.915Z,5.88
2023-02-08T14:15:44.128Z,5.96
2023-02-08T14:18:30.297Z,5.98
2023-02-08T14:21:33.544Z,6.19
2023-02-08T14:25:02.324Z,6.20
2023-02-08T14:27:57.157Z,6.31
2023-02-08T14:30:30.255Z,6.37
2023-02-08T14:33:08.427Z,6.38
2023-02-08T14:35:38.916Z,6.41
2023-02-08T14:38:20.680Z,6.40
2023-02-08T14:40:50.380Z,6.39
2023-02-08T14:43:19.770Z,6.46
2023-02-08T14:45:50.808Z,6.45
2023-02-08T14:48:42.532Z,6.47
2023-02-08T14:51:11.989Z,6.48
2023-02-08T14:53:57.308Z,6.45
2023-02-08T14:56:33.709Z,6.43
2023-02-08T14:59:06.600Z,6.47
2023-02-08T15:01:48.812Z,6.42
2023-02-08T15:04:18.103Z,6.42
2023-02-08T15:07:14.548Z,6.37
2023-02-08T15:09:43.454Z,6.40
2023-02-08T15:12:31.644Z,6.45
2023-02-08T15:15:00.861Z,6.40
2023-02-08T15:17:57.238Z,6.43
2023-02-08T15:20:27.628Z,6.43
2023-02-08T15:23:18.697Z,6.37
2023-02-08T15:25:55.023Z,6.47
2023-02-08T15:28:24.191Z,6.48
2023-02-08T15:31:10.786Z,6.45
2023-02-08T15:33:39.302Z,6.38
2023-02-08T15:36:16.278Z,6.32
2023-02-08T15:38:44.930Z,6.27
2023-02-08T15:41:33.827Z,6.25
2023-02-08T15:44:23.127Z,6.25
2023-02-08T15:49:30.247Z,6.20
2023-02-08T15:51:57.755Z,6.21
2023-02-08T15:54:24.928Z,6.17
2023-02-08T15:56:59.377Z,6.11
2023-02-08T15:59:29.272Z,6.07
2023-02-08T16:01:58.270Z,6.07
2023-02-08T16:04:25.736Z,6.03
2023-02-08T16:07:00.622Z,5.98
2023-02-08T16:09:28.926Z,5.95
2023-02-08T16:11:59.188Z,5.84
2023-02-08T16:14:29.842Z,5.80
2023-02-08T16:16:58.290Z,5.76
2023-02-08T16:19:29.133Z,5.70
2023-02-08T16:22:25.786Z,5.68
2023-02-08T16:24:52.403Z,5.63
2023-02-08T16:27:30.084Z,5.60
2023-02-08T16:29:57.074Z,5.53
2023-02-08T16:32:39.569Z,5.43
2023-02-08T16:35:29.462Z,5.39
2023-02-08T16:38:02.626Z,5.34
2023-02-08T16:41:12.603Z,5.27
2023-02-08T16:43:47.738Z,5.21
2023-02-08T16:46:14.879Z,5.20
2023-02-08T16:48:42.511Z,5.16
2023-02-08T16:51:16.710Z,5.11
2023-02-08T16:53:47.624Z,5.00
2023-02-08T16:56:14.676Z,5.04
2023-02-08T16:58:41.266Z,5.00
2023-02-08T17:01:14.005Z,4.98
2023-02-08T17:03:57.379Z,4.95
2023-02-08T17:06:30.153Z,4.92
2023-02-08T17:09:25.616Z,4.47
2023-02-08T17:12:21.862Z,4.84
2023-02-08T17:15:07.873Z,4.81
2023-02-08T17:17:54.359Z,4.79
2023-02-08T17:20:40.240Z,4.75
2023-02-08T17:23:27.179Z,4.76
2023-02-08T17:26:17.459Z,4.74
2023-02-08T17:29:04.483Z,4.74
2023-02-08T17:31:51.292Z,4.71
2023-02-08T17:34:39.529Z,4.51
2023-02-08T17:37:26.366Z,4.65
2023-02-08T17:40:14.365Z,4.55
2023-02-08T17:43:01.745Z,4.59
2023-02-08T17:45:48.578Z,4.53
2023-02-08T17:48:35.345Z,4.55
2023-02-08T17:51:24.024Z,4.56
2023-02-08T17:54:12.156Z,4.55
2023-02-08T17:56:59.773Z,4.51
2023-02-08T17:59:46.756Z,4.49
2023-02-08T18:02:33.597Z,4.46
2023-02-08T18:05:24.152Z,4.44
2023-02-08T18:08:10.902Z,4.40
2023-02-08T18:11:06.234Z,4.42
2023-02-08T18:13:54.202Z,4.39
2023-02-08T18:16:41.146Z,4.38
2023-02-08T18:19:07.801Z,4.33
2023-02-08T18:21:52.647Z,4.29
2023-02-08T18:24:54.118Z,4.25
2023-02-08T18:27:40.010Z,4.12
2023-02-08T18:30:07.729Z,4.19
2023-02-08T18:32:34.214Z,4.16
2023-02-08T18:35:03.432Z,4.13
2023-02-08T18:37:30.656Z,4.10
2023-02-08T18:39:57.229Z,4.07
2023-02-08T18:42:23.691Z,4.02
2023-02-08T18:44:50.244Z,3.93
2023-02-08T18:47:16.771Z,3.95
2023-02-08T18:49:43.325Z,3.93
2023-02-08T18:52:11.819Z,3.85
2023-02-08T18:54:56.904Z,3.79
2023-02-08T18:57:23.490Z,3.74
2023-02-08T18:59:50.029Z,3.71
2023-02-08T19:02:36.548Z,3.70
2023-02-08T19:05:21.344Z,3.66
2023-02-08T19:07:47.846Z,3.59
2023-02-08T19:10:14.357Z,3.53
2023-02-08T19:12:58.083Z,3.50
2023-02-08T19:15:44.708Z,3.53
2023-02-08T19:18:32.924Z,3.49
2023-02-08T19:21:20.106Z,3.47
2023-02-08T19:23:48.245Z,3.47
2023-02-08T19:26:36.939Z,3.33
2023-02-08T19:29:22.755Z,3.29
2023-02-08T19:32:09.562Z,3.21
2023-02-08T19:34:56.988Z,3.12
2023-02-08T19:37:45.558Z,3.22
2023-02-08T19:40:32.396Z,3.24
2023-02-08T19:43:19.143Z,3.30
2023-02-08T19:45:46.306Z,3.28
2023-02-08T19:48:31.653Z,3.30
2023-02-08T19:51:17.873Z,3.27
2023-02-08T19:54:08.476Z,3.16
2023-02-08T19:56:55.770Z,3.19
2023-02-08T19:59:43.506Z,3.24
2023-02-08T20:02:30.267Z,3.08
2023-02-08T20:05:17.133Z,3.13
2023-02-08T20:08:04.064Z,3.14
2023-02-08T20:10:50.845Z,3.19
2023-02-08T20:13:37.743Z,3.03
2023-02-08T20:16:25.060Z,3.03
2023-02-08T20:19:13.096Z,2.93
2023-02-08T20:21:59.901Z,3.02
2023-02-08T20:24:46.929Z,3.08
2023-02-08T20:27:33.752Z,2.97
2023-02-08T20:30:00.741Z,2.94
2023-02-08T20:32:27.579Z,2.93
2023-02-08T20:34:59.890Z,2.92
2023-02-08T20:37:28.456Z,2.94
2023-02-08T20:40:15.382Z,2.91
2023-02-08T20:42:41.913Z,2.94
2023-02-08T20:45:08.964Z,2.88
2023-02-08T20:47:45.971Z,2.83
2023-02-08T20:50:19.520Z,2.65
2023-02-08T20:52:49.007Z,2.65
2023-02-08T20:55:34.371Z,2.64
2023-02-08T20:58:00.854Z,2.65
2023-02-08T21:00:36.756Z,2.55
2023-02-08T21:03:08.284Z,2.58
2023-02-08T21:05:34.812Z,2.57
2023-02-08T21:08:01.276Z,2.52
2023-02-08T21:10:27.706Z,2.54
2023-02-08T21:12:54.254Z,2.57
2023-02-08T21:15:20.794Z,2.52
2023-02-08T21:17:47.337Z,2.55
2023-02-08T21:20:15.032Z,2.54
2023-02-08T21:22:41.766Z,2.45
2023-02-08T21:25:26.764Z,2.51
2023-02-08T21:27:53.331Z,2.42
2023-02-08T21:30:20.558Z,2.44
2023-02-08T21:32:47.010Z,2.47
2023-02-08T21:35:13.490Z,2.36
2023-02-08T21:37:40.761Z,2.40
2023-02-08T21:40:07.419Z,2.38
2023-02-08T21:42:33.906Z,2.47
2023-02-08T21:45:00.417Z,2.42
2023-02-08T21:47:26.943Z,2.49
2023-02-08T21:50:12.151Z,2.42
2023-02-08T21:52:57.219Z,2.38
2023-02-08T21:55:23.759Z,2.35
2023-02-08T21:57:51.535Z,2.30
2023-02-08T22:00:18.132Z,2.32
2023-02-08T22:02:44.847Z,2.31
2023-02-08T22:05:29.934Z,2.27
2023-02-08T22:07:57.889Z,2.28
2023-02-08T22:10:27.678Z,2.21
2023-02-08T22:12:55.157Z,2.23
2023-02-08T22:15:25.287Z,2.26
2023-02-08T22:17:55.581Z,2.19
2023-02-08T22:20:22.346Z,2.15
2023-02-08T22:22:52.630Z,1.97
2023-02-08T22:25:21.156Z,1.87
2023-02-08T22:28:23.899Z,1.60
2023-02-08T22:30:50.905Z,1.99
2023-02-08T22:33:17.461Z,2.00
2023-02-08T22:35:43.932Z,1.87
2023-02-08T22:38:13.081Z,1.80
2023-02-08T22:40:41.718Z,1.89
2023-02-08T22:43:08.231Z,1.83
2023-02-08T22:45:34.775Z,1.83
2023-02-08T22:48:01.274Z,1.86
2023-02-08T22:50:27.822Z,1.73
2023-02-08T22:52:54.316Z,1.74
2023-02-08T22:55:25.672Z,1.86
2023-02-08T22:57:52.188Z,1.80
2023-02-08T23:00:18.769Z,1.78
2023-02-08T23:02:45.364Z,1.72
2023-02-08T23:05:12.042Z,1.64
2023-02-08T23:07:38.591Z,1.54
2023-02-08T23:10:05.192Z,1.42
2023-02-08T23:12:31.716Z,1.48
2023-02-08T23:14:58.155Z,1.56
2023-02-08T23:17:24.756Z,1.53
2023-02-08T23:19:52.524Z,1.26
2023-02-08T23:22:19.012Z,1.21
2023-02-08T23:24:45.612Z,1.19
2023-02-08T23:27:12.175Z,1.23
2023-02-08T23:29:38.689Z,1.16
2023-02-08T23:32:05.266Z,1.16
2023-02-08T23:34:34.162Z,1.18
2023-02-08T23:37:14.903Z,1.22
2023-02-08T23:39:41.655Z,1.23
2023-02-08T23:42:25.273Z,1.27
2023-02-08T23:44:56.315Z,1.25
2023-02-08T23:47:24.386Z,1.14
2023-02-08T23:49:51.455Z,1.06
2023-02-08T23:52:18.120Z,1.11
2023-02-08T23:54:51.114Z,1.04
2023-02-08T23:57:18.499Z,1.08
2023-02-08T23:59:44.971Z,1.10
